Weather History for Gwinner, ND

Change the Weather History Date:

Saturday, March 8, 2014

  Actual Average (KP67) Record (KP67)
Temperature  
Mean Temperature 22 °F -  
Max Temperature 32 °F 22 °F 28 °F (1997)
Min Temperature 12 °F 5 °F 0 °F (1997)
Degree Days  
Heating Degree Days 43    
Moisture  
Dew Point 15 °F    
Average Humidity 73    
Maximum Humidity 86    
Minimum Humidity 59    
Precipitation  
Precipitation 0.00 in - - ()
Sea Level Pressure  
Sea Level Pressure 30.22 in    
Wind  
Wind Speed 8 mph (SW)    
Max Wind Speed 18 mph    
Max Gust Speed 17 mph    
Visibility 10 miles    
Events      
Averages and records for this station are not official NWS values.
T = Trace of Precipitation, MM = Missing Value Source: NWS Daily Summary

Daily Weather History Graph

Daily Weather History Graph

Search for Another Location

Airport:

Trip Planner

Search our weather history database for the weather conditions in past years. The results will help you decide how hot, cold, wet, or windy it might be!

Date:

Astronomy

Mar. 08, 2014 Rise Set
Actual Time 6:56 AM CST 6:26 PM CST
Civil Twilight 6:26 AM CST 6:56 PM CST
Nautical Twilight 5:51 AM CST 7:31 PM CST
Astronomical Twilight 5:16 AM CST 8:06 PM CST
Moon 11:17 AM CST (3/8) 1:46 AM CST (3/8)
Length of Visible Light 12h 30m
Length of Day
11h 30m
First Quarter, 52% of the Moon is Illuminated
Mar 8
First Quarter
Mar 16
Full
Mar 23
Last Quarter
Mar 30
New
Apr 7
First Quarter

Hourly Weather History & Observations

Time (CST) Temp. Windchill Dew Point Humidity Pressure Visibility Wind Dir Wind Speed Gust Speed Precip Events Conditions
12:35 AM 12.2 °F 1.7 °F 6.8 °F 79% 30.33 in 10.0 mi North 6.9 mph - 0.00 in   Clear
12:55 AM 12.2 °F -0.2 °F 6.8 °F 79% 30.33 in 10.0 mi North 9.2 mph - 0.00 in   Clear
1:15 AM 12.2 °F 1.7 °F 5.0 °F 73% 30.33 in 10.0 mi North 6.9 mph - 0.00 in   Scattered Clouds
1:35 AM 14.0 °F 2.0 °F 6.8 °F 73% 30.33 in 10.0 mi North 9.2 mph - 0.00 in   Mostly Cloudy
1:55 AM 14.0 °F 2.9 °F 6.8 °F 73% 30.33 in 10.0 mi NNE 8.1 mph - 0.00 in   Overcast
2:15 AM 14.0 °F 2.0 °F 6.8 °F 73% 30.33 in 10.0 mi North 9.2 mph - 0.00 in   Overcast
2:35 AM 14.0 °F 2.9 °F 6.8 °F 73% 30.33 in 10.0 mi North 8.1 mph - 0.00 in   Overcast
2:55 AM 14.0 °F 2.0 °F 6.8 °F 73% 30.32 in 10.0 mi NNE 9.2 mph - 0.00 in   Overcast
3:15 AM 14.0 °F 5.1 °F 6.8 °F 73% 30.31 in 10.0 mi NE 5.8 mph - 0.00 in   Overcast
3:35 AM 14.0 °F 5.1 °F 6.8 °F 73% 30.31 in 10.0 mi NNE 5.8 mph - 0.00 in   Overcast
3:55 AM 14.0 °F 5.1 °F 6.8 °F 73% 30.32 in 10.0 mi NNE 5.8 mph - 0.00 in   Overcast
4:15 AM 14.0 °F 6.5 °F 6.8 °F 73% 30.32 in 10.0 mi North 4.6 mph - 0.00 in   Overcast
4:35 AM 14.0 °F 6.5 °F 6.8 °F 73% 30.33 in 10.0 mi North 4.6 mph - 0.00 in   Overcast
4:55 AM 14.0 °F 5.1 °F 6.8 °F 73% 30.33 in 10.0 mi North 5.8 mph - 0.00 in   Overcast
5:15 AM 14.0 °F 8.2 °F 6.8 °F 73% 30.33 in 10.0 mi NNW 3.5 mph - 0.00 in   Overcast
5:35 AM 14.0 °F 8.2 °F 6.8 °F 73% 30.32 in 10.0 mi NNE 3.5 mph - 0.00 in   Overcast
5:55 AM 14.0 °F - 5.0 °F 67% 30.31 in 10.0 mi Calm Calm - 0.00 in   Overcast
6:15 AM 14.0 °F - 6.8 °F 73% 30.31 in 10.0 mi Calm Calm - 0.00 in   Overcast
6:35 AM 14.0 °F - 6.8 °F 73% 30.32 in 10.0 mi Calm Calm - 0.00 in   Overcast
6:55 AM 14.0 °F - 5.0 °F 67% 30.32 in 10.0 mi Calm Calm - 0.00 in   Overcast
7:15 AM 14.0 °F - 6.8 °F 73% 30.33 in 10.0 mi Calm Calm - 0.00 in   Overcast
7:35 AM 15.8 °F - 6.8 °F 68% 30.32 in 10.0 mi Calm Calm - 0.00 in   Overcast
7:55 AM 15.8 °F - 6.8 °F 68% 30.33 in 10.0 mi Calm Calm - 0.00 in   Overcast
8:15 AM 15.8 °F - 8.6 °F 73% 30.34 in 10.0 mi Calm Calm - 0.00 in   Overcast
8:35 AM 17.6 °F 10.7 °F 8.6 °F 68% 30.34 in 10.0 mi SW 4.6 mph - 0.00 in   Overcast
8:55 AM 17.6 °F 10.7 °F 8.6 °F 68% 30.33 in 10.0 mi SW 4.6 mph - 0.00 in   Overcast
9:15 AM 17.6 °F 9.3 °F 8.6 °F 68% 30.33 in 10.0 mi SW 5.8 mph - 0.00 in   Overcast
9:35 AM 17.6 °F 8.2 °F 8.6 °F 68% 30.33 in 10.0 mi SSW 6.9 mph - 0.00 in   Overcast
9:55 AM 19.4 °F 9.5 °F 8.6 °F 63% 30.32 in 10.0 mi SSW 8.1 mph - 0.00 in   Overcast
10:15 AM 19.4 °F 9.5 °F 8.6 °F 63% 30.32 in 10.0 mi SSW 8.1 mph - 0.00 in   Overcast
10:35 AM 21.2 °F 12.6 °F 10.4 °F 63% 30.31 in 10.0 mi SSW 6.9 mph - 0.00 in   Overcast
10:55 AM 21.2 °F 9.5 °F 10.4 °F 63% 30.30 in 10.0 mi SSW 11.5 mph - 0.00 in   Overcast
11:15 AM 21.2 °F 9.5 °F 12.2 °F 68% 30.30 in 10.0 mi SSW 11.5 mph - 0.00 in   Overcast
11:35 AM 23.0 °F 11.7 °F 12.2 °F 63% 30.29 in 10.0 mi SW 11.5 mph - 0.00 in   Overcast
11:55 AM 23.0 °F 11.7 °F 12.2 °F 63% 30.29 in 10.0 mi SW 11.5 mph - 0.00 in   Overcast
12:15 PM 24.8 °F 14.0 °F 14.0 °F 64% 30.29 in 10.0 mi WSW 11.5 mph - 0.00 in   Overcast
12:35 PM 26.6 °F 16.8 °F 14.0 °F 59% 30.28 in 10.0 mi SSW 10.4 mph - 0.00 in   Overcast
12:55 PM 26.6 °F 16.2 °F 15.8 °F 64% 30.27 in 10.0 mi SW 11.5 mph - 0.00 in   Overcast
1:15 PM 26.6 °F 16.2 °F 15.8 °F 64% 30.26 in 10.0 mi SW 11.5 mph - 0.00 in   Overcast
1:35 PM 28.4 °F 17.5 °F 17.6 °F 64% 30.25 in 10.0 mi SW 13.8 mph - 0.00 in   Overcast
1:55 PM 28.4 °F 18.0 °F 17.6 °F 64% 30.23 in 10.0 mi SW 12.7 mph - 0.00 in   Overcast
2:15 PM 30.2 °F 20.2 °F 19.4 °F 64% 30.22 in 10.0 mi SSW 12.7 mph - 0.00 in   Overcast
2:35 PM 30.2 °F 19.3 °F 19.4 °F 64% 30.21 in 10.0 mi WSW 15.0 mph - 0.00 in   Overcast
2:55 PM 30.2 °F 18.9 °F 19.4 °F 64% 30.20 in 10.0 mi SW 16.1 mph - 0.00 in   Overcast
3:15 PM 30.2 °F 20.2 °F 19.4 °F 64% 30.20 in 10.0 mi SW 12.7 mph - 0.00 in   Overcast
3:35 PM 30.2 °F 19.3 °F 21.2 °F 69% 30.19 in 10.0 mi SSW 15.0 mph - 0.00 in   Overcast
3:55 PM 30.2 °F 20.2 °F 21.2 °F 69% 30.19 in 10.0 mi SW 12.7 mph 17.3 mph 0.00 in   Overcast
4:15 PM 30.2 °F 20.2 °F 21.2 °F 69% 30.19 in 10.0 mi SSW 12.7 mph 17.3 mph 0.00 in   Mostly Cloudy
4:35 PM 32.0 °F 23.0 °F 21.2 °F 64% 30.18 in 10.0 mi SSW 11.5 mph - 0.00 in   Overcast
4:55 PM 32.0 °F 22.1 °F 23.0 °F 69% 30.18 in 10.0 mi SSW 13.8 mph - 0.00 in   Mostly Cloudy
5:15 PM 32.0 °F 22.5 °F 23.0 °F 69% 30.16 in 10.0 mi SSW 12.7 mph 17.3 mph 0.00 in   Partly Cloudy
5:35 PM 32.0 °F 22.5 °F 23.0 °F 69% 30.15 in 10.0 mi SSW 12.7 mph - 0.00 in   Clear
5:55 PM 32.0 °F 21.2 °F 23.0 °F 69% 30.14 in 10.0 mi SSW 16.1 mph - 0.00 in   Clear
6:15 PM 30.2 °F 20.2 °F 23.0 °F 75% 30.13 in 10.0 mi SSW 12.7 mph - 0.00 in   Clear
6:35 PM 30.2 °F 20.8 °F 23.0 °F 75% 30.12 in 10.0 mi SSW 11.5 mph - 0.00 in   Clear
6:55 PM 28.4 °F 19.1 °F 23.0 °F 80% 30.12 in 10.0 mi SSW 10.4 mph - 0.00 in   Clear
7:15 PM 28.4 °F 19.1 °F 23.0 °F 80% 30.11 in 10.0 mi South 10.4 mph - 0.00 in   Clear
7:35 PM 28.4 °F 19.7 °F 23.0 °F 80% 30.10 in 10.0 mi SSW 9.2 mph - 0.00 in   Clear
7:55 PM 28.4 °F 18.0 °F 24.8 °F 86% 30.08 in 10.0 mi SSW 12.7 mph - 0.00 in   Clear
8:15 PM 28.4 °F 17.0 °F 24.8 °F 86% 30.07 in 10.0 mi SSW 15.0 mph - 0.00 in   Clear
8:35 PM 28.4 °F 17.5 °F 24.8 °F 86% 30.05 in 10.0 mi SSW 13.8 mph - 0.00 in   Clear
8:55 PM 30.2 °F 19.3 °F 26.6 °F 86% 30.05 in 10.0 mi SSW 15.0 mph - 0.00 in   Clear
9:15 PM 30.2 °F 19.8 °F 26.6 °F 86% 30.05 in 10.0 mi SSW 13.8 mph - 0.00 in   Clear
9:35 PM 30.2 °F 18.9 °F 26.6 °F 86% 30.04 in 10.0 mi SW 16.1 mph - 0.00 in   Clear
9:55 PM 30.2 °F 18.9 °F 26.6 °F 86% 30.03 in 10.0 mi SSW 16.1 mph - 0.00 in   Clear
10:15 PM 30.2 °F 18.9 °F 26.6 °F 86% 30.02 in 10.0 mi SSW 16.1 mph - 0.00 in   Clear
10:35 PM 30.2 °F 18.5 °F 26.6 °F 86% 30.00 in 10.0 mi SSW 17.3 mph - 0.00 in   Clear
10:55 PM 30.2 °F 18.1 °F 26.6 °F 86% 29.98 in 10.0 mi SSW 18.4 mph - 0.00 in   Clear
11:15 PM 30.2 °F 18.9 °F 26.6 °F 86% 29.96 in 10.0 mi SSW 16.1 mph - 0.00 in   Clear
11:35 PM 30.2 °F 18.5 °F 26.6 °F 86% 29.95 in 10.0 mi SSW 17.3 mph - 0.00 in   Clear
11:55 PM 30.2 °F 18.5 °F 26.6 °F 86% 29.93 in 10.0 mi SSW 17.3 mph - 0.00 in   Clear